Time;durP1;ratioP1;P1;durP2;ratioP2;P2;SDS_P1;SDS_P2;PMS_P1;PMS_P2;Temp;Humidity;BMP_temperature;BMP_pressure;BME280_temperature;BME280_humidity;BME280_pressure;Samples;Min_cycle;Max_cycle;Signal;HPM_P1;HPM_P2
2023/08/10 00:00:12;;;;;;;2.70;2.00;;;;;;;17.57;67.57;99825.53;4974893;28;20885;-75
2023/08/10 00:02:38;;;;;;;3.63;2.40;;;;;;;17.47;67.78;99821.03;4975493;28;20730;-75
2023/08/10 00:05:05;;;;;;;3.67;2.70;;;;;;;17.35;67.92;99824.78;4976052;28;20588;-75
2023/08/10 00:07:31;;;;;;;6.80;4.20;;;;;;;17.29;68.40;99821.84;4973703;28;20469;-75
2023/08/10 00:09:57;;;;;;;1.90;1.77;;;;;;;17.27;68.44;99821.13;4976507;28;20533;-75
2023/08/10 00:12:22;;;;;;;4.13;2.77;;;;;;;17.25;68.56;99824.75;4977894;28;20222;-75
2023/08/10 00:14:48;;;;;;;2.60;2.33;;;;;;;17.26;68.48;99817.63;4978919;28;20462;-75
2023/08/10 00:17:15;;;;;;;2.47;1.93;;;;;;;17.28;68.66;99815.66;4979539;28;20233;-75
2023/08/10 00:19:40;;;;;;;9.13;2.97;;;;;;;17.27;68.45;99816.66;4978330;28;20286;-75
2023/08/10 00:22:06;;;;;;;5.60;2.70;;;;;;;17.24;68.44;99816.91;4976952;28;20551;-75
2023/08/10 00:24:31;;;;;;;2.67;2.23;;;;;;;17.19;68.54;99821.78;4979699;28;20595;-75
2023/08/10 00:26:57;;;;;;;11.83;3.30;;;;;;;17.15;68.89;99815.09;4979037;28;20199;-75
2023/08/10 00:29:23;;;;;;;4.30;2.90;;;;;;;17.10;68.95;99817.31;4978813;28;20394;-75
2023/08/10 00:31:49;;;;;;;3.53;2.47;;;;;;;17.03;68.97;99823.13;4978325;28;20218;-75
2023/08/10 00:34:15;;;;;;;3.43;3.13;;;;;;;16.98;69.35;99820.03;4980572;28;20477;-75
2023/08/10 00:36:41;;;;;;;3.47;2.40;;;;;;;16.98;69.40;99816.53;4980014;28;20451;-75
2023/08/10 00:39:07;;;;;;;3.90;2.33;;;;;;;16.99;69.44;99818.25;4980052;28;20567;-75
2023/08/10 00:41:33;;;;;;;4.20;2.07;;;;;;;17.02;69.34;99816.16;4977845;28;20288;-75
2023/08/10 00:43:58;;;;;;;2.60;2.27;;;;;;;17.04;69.07;99818.69;4979113;28;20553;-75
2023/08/10 00:46:26;;;;;;;2.58;2.38;;;;;;;17.07;69.26;99820.22;4977804;28;20686;-75
2023/08/10 00:48:52;;;;;;;2.37;1.97;;;;;;;17.08;69.17;99824.56;4979243;28;20212;-75
2023/08/10 00:51:18;;;;;;;2.70;2.50;;;;;;;17.05;69.11;99825.66;4977007;28;20861;-75
2023/08/10 00:53:44;;;;;;;2.60;2.23;;;;;;;17.01;69.18;99829.53;4961625;28;20474;-75
2023/08/10 00:56:11;;;;;;;2.60;2.30;;;;;;;16.94;69.44;99829.25;4962443;28;20606;-75
2023/08/10 00:58:37;;;;;;;2.75;2.53;;;;;;;16.89;69.62;99831.44;4979096;28;20560;-75
2023/08/10 01:01:04;;;;;;;6.80;2.27;;;;;;;16.83;69.81;99828.50;4977134;28;20219;-75
2023/08/10 01:03:30;;;;;;;3.85;2.40;;;;;;;16.77;69.94;99828.06;4976623;28;20472;-75
2023/08/10 01:06:05;;;;;;;2.85;2.40;;;;;;;16.76;70.08;99826.31;4977121;28;21051;-75
2023/08/10 01:09:11;;;;;;;3.00;2.60;;;;;;;16.75;70.08;99829.13;4978183;28;20514;-75
2023/08/10 01:11:40;;;;;;;2.30;2.10;;;;;;;16.73;70.10;99831.91;4978677;28;20197;-75
2023/08/10 01:14:59;;;;;;;3.90;2.85;;;;;;;16.77;69.96;99843.97;4976849;28;20485;-75
2023/08/10 01:17:29;;;;;;;3.20;2.33;;;;;;;16.78;69.95;99844.81;4896512;29;20219;-75
2023/08/10 01:19:58;;;;;;;3.00;2.30;;;;;;;16.77;69.80;99845.78;4974315;28;20695;-75
2023/08/10 01:22:51;;;;;;;2.70;2.50;;;;;;;16.76;69.86;99841.41;4976324;28;20892;-75
2023/08/10 01:25:16;;;;;;;2.70;1.92;;;;;;;16.78;69.91;99847.47;4978008;28;20222;-75
2023/08/10 01:27:44;;;;;;;3.20;2.43;;;;;;;16.80;69.81;99848.19;4977659;28;20246;-75
2023/08/10 01:30:11;;;;;;;4.70;2.50;;;;;;;16.79;69.71;99854.44;4960213;28;20206;-75
2023/08/10 01:32:37;;;;;;;2.95;2.72;;;;;;;16.79;69.84;99851.78;4976407;28;20525;-75
2023/08/10 01:35:06;;;;;;;4.20;2.60;;;;;;;16.81;69.77;99849.84;4979099;28;20564;-75
2023/08/10 01:37:33;;;;;;;6.03;2.35;;;;;;;16.82;69.75;99843.56;4976623;28;20212;-75
2023/08/10 01:39:59;;;;;;;3.40;2.70;;;;;;;16.83;69.52;99850.56;4977362;28;20217;-75
2023/08/10 01:42:25;;;;;;;3.00;2.38;;;;;;;16.81;69.73;99850.69;4977468;28;20594;-75
2023/08/10 01:44:50;;;;;;;2.80;2.40;;;;;;;16.83;69.63;99844.41;4978265;28;20643;-75
2023/08/10 01:47:28;;;;;;;3.83;2.17;;;;;;;16.81;69.75;99847.19;4976915;28;20548;-75
2023/08/10 01:50:00;;;;;;;8.23;2.40;;;;;;;16.78;69.67;99850.94;4977603;28;20681;-75
2023/08/10 01:52:33;;;;;;;2.40;2.00;;;;;;;16.78;69.86;99847.47;4977039;28;20257;-75
2023/08/10 01:55:00;;;;;;;2.95;2.13;;;;;;;16.76;69.71;99852.84;4960145;28;20443;-75
2023/08/10 01:57:28;;;;;;;5.00;2.20;;;;;;;16.73;69.80;99855.75;4975942;28;20832;-75
2023/08/10 01:59:54;;;;;;;3.88;2.40;;;;;;;16.71;69.86;99849.75;4978641;28;20454;-75
2023/08/10 02:02:20;;;;;;;2.80;2.50;;;;;;;16.70;69.99;99850.72;4975185;28;20205;-75
2023/08/10 02:04:45;;;;;;;3.40;2.57;;;;;;;16.68;70.05;99843.88;4976026;28;20203;-75
2023/08/10 02:07:11;;;;;;;3.20;2.60;;;;;;;16.64;70.32;99845.13;4974495;28;20927;-75
2023/08/10 02:09:38;;;;;;;2.83;2.63;;;;;;;16.55;70.60;99846.72;4977704;28;20508;-75
2023/08/10 02:12:03;;;;;;;2.50;2.30;;;;;;;16.47;70.71;99852.69;4958898;28;20254;-75
2023/08/10 02:14:29;;;;;;;2.03;1.70;;;;;;;16.37;70.91;99846.47;4975236;28;20248;-75
2023/08/10 02:16:54;;;;;;;5.10;1.70;;;;;;;16.28;71.16;99847.22;4960453;28;20831;-75
2023/08/10 02:19:21;;;;;;;1.77;1.67;;;;;;;16.26;71.05;99847.38;4975298;28;20205;-76
2023/08/10 02:21:46;;;;;;;2.13;1.93;;;;;;;16.20;71.08;99844.38;4974394;28;20209;-75
2023/08/10 02:24:12;;;;;;;1.90;1.70;;;;;;;16.12;71.21;99847.66;4976680;28;20216;-75
2023/08/10 02:26:37;;;;;;;2.07;1.80;;;;;;;16.05;71.29;99842.03;4976786;28;20206;-75
2023/08/10 02:29:02;;;;;;;2.80;1.63;;;;;;;15.97;71.36;99843.66;4972430;28;20429;-75
2023/08/10 02:31:28;;;;;;;3.50;2.37;;;;;;;15.92;71.52;99841.38;4973993;28;20535;-75
2023/08/10 02:33:54;;;;;;;3.20;1.80;;;;;;;15.91;71.52;99840.53;4974153;28;20299;-75
2023/08/10 02:36:19;;;;;;;2.50;2.15;;;;;;;15.93;71.54;99838.59;4955156;28;20436;-75
2023/08/10 02:38:45;;;;;;;3.80;2.20;;;;;;;15.93;71.77;99837.75;4976226;28;20350;-75
2023/08/10 02:41:10;;;;;;;8.30;2.60;;;;;;;15.90;71.78;99843.28;4973561;28;20208;-75
2023/08/10 02:43:36;;;;;;;2.20;1.83;;;;;;;15.90;71.73;99841.50;4977340;28;20275;-75
2023/08/10 02:46:02;;;;;;;3.43;2.07;;;;;;;15.93;71.54;99833.31;4976588;28;20618;-75
2023/08/10 02:48:28;;;;;;;2.50;2.30;;;;;;;15.95;71.50;99842.94;4973548;28;20836;-75
2023/08/10 02:50:54;;;;;;;2.97;2.23;;;;;;;15.93;71.51;99840.41;4977072;28;20212;-75
2023/08/10 02:53:20;;;;;;;2.63;2.33;;;;;;;15.93;71.41;99832.44;4956559;28;20471;-75
2023/08/10 02:55:45;;;;;;;2.72;1.90;;;;;;;15.94;71.37;99831.50;4954262;28;20689;-75
2023/08/10 02:58:11;;;;;;;3.37;2.00;;;;;;;15.95;71.29;99833.16;4975396;28;20207;-75
2023/08/10 03:00:37;;;;;;;6.17;2.67;;;;;;;15.96;71.23;99837.53;4974229;28;20692;-75
2023/08/10 03:03:04;;;;;;;3.95;2.45;;;;;;;15.96;71.21;99826.91;4973890;28;20203;-75
2023/08/10 03:05:29;;;;;;;3.50;2.38;;;;;;;15.95;71.07;99833.16;4975527;28;20654;-75
2023/08/10 03:07:55;;;;;;;2.40;2.07;;;;;;;15.89;71.28;99839.81;4972768;28;20636;-75
2023/08/10 03:10:21;;;;;;;6.00;4.13;;;;;;;15.83;71.52;99831.53;4971340;28;20484;-75
2023/08/10 03:12:47;;;;;;;3.80;2.05;;;;;;;15.82;71.54;99832.50;4975638;28;20207;-75
2023/08/10 03:15:12;;;;;;;2.00;1.80;;;;;;;15.78;71.41;99833.72;4958063;28;20197;-75
2023/08/10 03:17:42;;;;;;;2.00;1.83;;;;;;;15.72;71.49;99831.59;4973579;28;20565;-75
2023/08/10 03:20:16;;;;;;;2.95;2.17;;;;;;;15.68;71.48;99829.16;4959601;28;20235;-75
2023/08/10 03:22:44;;;;;;;3.47;2.00;;;;;;;15.65;71.52;99833.84;4959946;28;20302;-75
2023/08/10 03:25:11;;;;;;;2.13;1.60;;;;;;;15.60;71.46;99836.84;4959399;28;20195;-75
2023/08/10 03:27:36;;;;;;;1.85;1.67;;;;;;;15.59;71.69;99831.69;4976517;28;20235;-75
2023/08/10 03:30:03;;;;;;;2.43;1.70;;;;;;;15.60;71.77;99826.25;4976744;28;20216;-76
2023/08/10 03:32:31;;;;;;;7.80;2.33;;;;;;;15.62;71.58;99823.50;4976275;28;20927;-75
2023/08/10 03:34:57;;;;;;;3.13;1.80;;;;;;;15.65;71.31;99833.84;4971636;28;20208;-76
2023/08/10 03:37:22;;;;;;;3.53;1.77;;;;;;;15.68;71.22;99836.25;4971470;28;20209;-76
2023/08/10 03:39:48;;;;;;;3.33;2.20;;;;;;;15.70;71.23;99837.81;4973330;28;20598;-76
2023/08/10 03:42:13;;;;;;;2.57;2.37;;;;;;;15.73;71.02;99834.09;4970662;28;20610;-75
2023/08/10 03:44:38;;;;;;;2.80;1.83;;;;;;;15.75;71.07;99837.47;4970699;28;20624;-76
2023/08/10 03:47:04;;;;;;;2.80;2.03;;;;;;;15.76;70.72;99843.59;4975855;28;20350;-76
2023/08/10 03:49:29;;;;;;;2.13;1.73;;;;;;;15.75;70.91;99833.97;4979766;28;20200;-76
2023/08/10 03:51:55;;;;;;;2.20;2.00;;;;;;;15.75;71.01;99837.47;4975853;28;20196;-76
2023/08/10 03:54:21;;;;;;;2.08;1.80;;;;;;;15.73;70.98;99831.44;4979753;28;20213;-76
2023/08/10 03:56:47;;;;;;;1.97;1.57;;;;;;;15.68;70.91;99834.47;4979303;28;20814;-76
2023/08/10 03:59:12;;;;;;;4.93;2.07;;;;;;;15.63;71.05;99836.59;4972690;28;20200;-75
2023/08/10 04:01:38;;;;;;;2.80;1.43;;;;;;;15.57;71.10;99837.09;4957081;28;20335;-76
2023/08/10 04:04:04;;;;;;;2.10;1.80;;;;;;;15.48;71.18;99838.69;4980474;28;20582;-76
2023/08/10 04:06:29;;;;;;;2.53;1.80;;;;;;;15.40;71.40;99849.06;4979953;28;20429;-76
2023/08/10 04:08:55;;;;;;;1.63;1.30;;;;;;;15.30;71.70;99850.75;4980030;28;20215;-76
2023/08/10 04:11:20;;;;;;;1.63;1.20;;;;;;;15.19;71.97;99856.06;4977914;28;20200;-75
2023/08/10 04:13:46;;;;;;;2.13;1.30;;;;;;;15.10;72.20;99849.69;4979483;28;20279;-76
2023/08/10 04:16:12;;;;;;;1.27;1.07;;;;;;;15.04;72.20;99852.78;4962413;28;20687;-76
2023/08/10 04:18:37;;;;;;;1.80;1.70;;;;;;;15.00;72.25;99856.66;4980226;28;20314;-76
2023/08/10 04:21:03;;;;;;;2.90;2.57;;;;;;;14.98;72.27;99855.94;4973718;28;20474;-76
2023/08/10 04:23:28;;;;;;;2.40;1.60;;;;;;;14.96;72.26;99856.06;4979629;28;20656;-76
2023/08/10 04:25:54;;;;;;;2.37;1.57;;;;;;;14.93;72.15;99860.72;4979510;28;20310;-75
2023/08/10 04:28:19;;;;;;;3.30;2.37;;;;;;;14.89;72.24;99860.13;4981649;28;20227;-75
2023/08/10 04:30:45;;;;;;;2.50;2.23;;;;;;;14.87;72.32;99863.84;4977990;28;20602;-76
2023/08/10 04:33:10;;;;;;;2.90;1.70;;;;;;;14.87;72.50;99872.63;4979804;28;20655;-75
2023/08/10 04:35:36;;;;;;;1.77;1.50;;;;;;;14.87;72.49;99871.78;4979347;28;20184;-76
2023/08/10 04:38:01;;;;;;;1.77;1.50;;;;;;;14.85;72.63;99866.59;4977495;28;20568;-75
2023/08/10 04:40:27;;;;;;;1.63;1.30;;;;;;;14.89;72.25;99865.41;4978500;28;20222;-76
2023/08/10 04:42:52;;;;;;;1.30;1.20;;;;;;;14.94;72.25;99865.06;4978048;28;20212;-76
2023/08/10 04:45:18;;;;;;;3.67;1.57;;;;;;;14.94;72.07;99875.66;4979543;28;20195;-76
2023/08/10 04:47:44;;;;;;;1.50;1.30;;;;;;;14.92;72.08;99867.00;4978164;28;20214;-76
2023/08/10 04:50:11;;;;;;;1.50;1.30;;;;;;;14.89;72.27;99873.34;4979184;28;20202;-76
2023/08/10 04:52:37;;;;;;;1.73;1.55;;;;;;;14.88;72.07;99871.69;4979073;28;20380;-76
2023/08/10 04:55:03;;;;;;;2.03;1.60;;;;;;;14.87;72.51;99866.50;4978072;28;20576;-75
2023/08/10 04:57:29;;;;;;;3.15;2.45;;;;;;;14.87;72.31;99874.44;4977763;28;20278;-75
2023/08/10 04:59:54;;;;;;;1.80;1.70;;;;;;;14.85;72.54;99876.34;4978726;28;20668;-75
2023/08/10 05:02:20;;;;;;;4.57;2.33;;;;;;;14.87;72.56;99871.78;4979468;28;20656;-75
2023/08/10 05:04:45;;;;;;;1.90;1.80;;;;;;;14.91;72.83;99874.09;4978071;28;20211;-75
2023/08/10 05:07:10;;;;;;;2.47;2.00;;;;;;;15.15;72.41;99871.34;4979791;28;20200;-75
2023/08/10 05:09:37;;;;;;;4.27;2.30;;;;;;;15.66;71.31;99873.44;4978470;28;20609;-75
2023/08/10 05:12:04;;;;;;;2.63;1.80;;;;;;;16.25;69.78;99872.19;4978056;28;20211;-75
2023/08/10 05:14:29;;;;;;;3.08;1.83;;;;;;;16.82;68.20;99872.72;4977872;28;20231;-75
2023/08/10 05:16:54;;;;;;;2.83;2.00;;;;;;;17.34;66.78;99872.72;4978592;28;20222;-75
2023/08/10 05:19:20;;;;;;;1.83;1.57;;;;;;;17.85;65.54;99872.59;4978633;28;20674;-75
2023/08/10 05:21:45;;;;;;;4.20;2.60;;;;;;;18.38;63.67;99873.16;4979110;28;20229;-75
2023/08/10 05:24:10;;;;;;;3.73;2.57;;;;;;;18.93;62.50;99876.00;4978386;28;20200;-75
2023/08/10 05:26:36;;;;;;;2.63;2.30;;;;;;;19.40;61.20;99879.47;4986313;28;20801;-75
2023/08/10 05:29:01;;;;;;;2.63;2.10;;;;;;;19.85;59.91;99883.19;5033595;22;20244;-77
2023/08/10 05:31:27;;;;;;;2.33;2.03;;;;;;;20.33;58.88;99890.84;5030329;28;20525;-78
2023/08/10 05:33:52;;;;;;;2.37;2.17;;;;;;;20.88;57.46;99895.09;5042165;28;20193;-78
2023/08/10 05:36:17;;;;;;;2.20;1.90;;;;;;;21.35;56.64;99894.69;5050127;28;20254;-78
2023/08/10 05:38:43;;;;;;;2.73;2.23;;;;;;;21.76;55.12;99902.88;5047360;28;20205;-76
2023/08/10 05:41:08;;;;;;;2.90;2.57;;;;;;;22.00;54.45;99902.09;5046151;28;20209;-77
2023/08/10 05:43:36;;;;;;;3.70;2.13;;;;;;;22.13;54.27;99906.16;5051629;28;20609;-77
2023/08/10 05:46:01;;;;;;;2.50;2.07;;;;;;;22.37;53.68;99908.06;5050588;28;20516;-77
2023/08/10 05:48:27;;;;;;;4.13;3.70;;;;;;;22.62;52.91;99916.91;5048161;28;20225;-78
2023/08/10 05:50:52;;;;;;;4.07;3.10;;;;;;;22.92;51.86;99910.03;5047795;28;20207;-77
2023/08/10 05:53:18;;;;;;;2.80;2.60;;;;;;;23.30;51.48;99915.66;5045166;28;20498;-77
2023/08/10 05:55:43;;;;;;;2.70;2.50;;;;;;;23.72;50.16;99909.16;5048225;28;20219;-76
2023/08/10 05:58:09;;;;;;;2.30;2.10;;;;;;;24.13;49.32;99916.97;5048197;28;20239;-77
2023/08/10 06:00:36;;;;;;;2.73;2.27;;;;;;;24.51;48.36;99910.66;5048549;28;20201;-77
2023/08/10 06:03:03;;;;;;;2.47;2.03;;;;;;;24.89;47.41;99904.44;5045357;28;20744;-79
2023/08/10 06:05:32;;;;;;;2.23;2.03;;;;;;;25.28;46.49;99912.31;5047405;28;20532;-77
2023/08/10 06:07:58;;;;;;;3.17;2.40;;;;;;;25.60;46.07;99915.63;5045205;28;20463;-79
2023/08/10 06:10:25;;;;;;;6.70;2.20;;;;;;;25.91;45.07;99917.25;5047651;28;20451;-77
2023/08/10 06:12:50;;;;;;;3.40;2.40;;;;;;;26.22;44.44;99917.81;5044496;28;20464;-78
2023/08/10 06:15:16;;;;;;;2.20;1.93;;;;;;;26.54;43.79;99917.50;5047644;28;20525;-76
2023/08/10 06:17:42;;;;;;;10.20;2.10;;;;;;;26.77;43.05;99923.50;5045204;28;20682;-78
2023/08/10 06:20:09;;;;;;;2.10;1.90;;;;;;;26.99;42.46;99916.19;5047018;28;20238;-77
2023/08/10 06:22:39;;;;;;;3.93;2.00;;;;;;;27.17;42.11;99920.28;5043891;28;20204;-78
2023/08/10 06:25:05;;;;;;;2.47;2.00;;;;;;;27.22;41.80;99918.69;5044559;28;20454;-78
2023/08/10 06:27:31;;;;;;;3.07;1.87;;;;;;;27.41;41.21;99913.56;5046695;28;21048;-77
2023/08/10 06:29:58;;;;;;;2.40;2.20;;;;;;;27.58;41.04;99912.22;5044159;28;20566;-77
2023/08/10 06:32:24;;;;;;;3.17;1.90;;;;;;;27.65;40.71;99914.91;5043466;28;20712;-77
2023/08/10 06:34:49;;;;;;;2.50;2.07;;;;;;;27.65;40.58;99926.53;5043628;28;20479;-76
2023/08/10 06:37:16;;;;;;;2.13;1.90;;;;;;;27.73;40.44;99918.31;5045415;28;20209;-77
2023/08/10 06:39:42;;;;;;;2.60;2.07;;;;;;;27.94;40.43;99921.91;5045738;28;20206;-79
2023/08/10 06:42:08;;;;;;;3.83;2.07;;;;;;;27.93;40.24;99915.69;5042659;28;20471;-78
2023/08/10 06:44:35;;;;;;;3.30;2.03;;;;;;;28.00;40.17;99918.41;5045796;28;20197;-77
2023/08/10 06:47:02;;;;;;;2.83;2.27;;;;;;;28.06;39.89;99916.75;5047375;28;20447;-77
2023/08/10 06:49:28;;;;;;;2.43;2.07;;;;;;;28.06;39.82;99919.44;5045446;28;20203;-78
2023/08/10 06:51:53;;;;;;;2.23;2.03;;;;;;;28.14;39.60;99913.84;5042168;28;20459;-78
2023/08/10 06:54:20;;;;;;;3.37;2.00;;;;;;;28.30;39.26;99912.63;5046076;28;20208;-78
2023/08/10 06:56:45;;;;;;;3.40;2.23;;;;;;;28.47;38.78;99907.72;5045108;28;20642;-79
2023/08/10 06:59:11;;;;;;;3.97;2.50;;;;;;;28.42;38.65;99909.13;5045830;28;20502;-78
2023/08/10 07:01:37;;;;;;;1.50;1.40;;;;;;;28.29;39.07;99911.81;5044405;28;20209;-76
2023/08/10 07:04:03;;;;;;;3.73;2.33;;;;;;;28.35;38.79;99904.75;5043706;28;20197;-77
2023/08/10 07:06:29;;;;;;;3.20;2.40;;;;;;;28.31;38.66;99915.16;5045369;28;20470;-77
2023/08/10 07:08:54;;;;;;;1.70;1.60;;;;;;;28.34;38.45;99908.50;5044666;28;20240;-78
2023/08/10 07:11:20;;;;;;;2.77;2.50;;;;;;;28.34;38.76;99914.72;5041310;28;20193;-77
2023/08/10 07:13:46;;;;;;;3.77;2.07;;;;;;;28.23;38.82;99918.88;5043991;28;20197;-77
2023/08/10 07:16:12;;;;;;;5.10;2.20;;;;;;;28.21;39.06;99917.41;5044945;28;20536;-77
2023/08/10 07:18:38;;;;;;;3.33;1.87;;;;;;;28.13;38.65;99914.91;5045671;28;20968;-78
2023/08/10 07:21:04;;;;;;;6.10;2.20;;;;;;;28.04;38.99;99916.13;5042909;28;20860;-78
2023/08/10 07:23:30;;;;;;;3.17;2.00;;;;;;;27.96;38.88;99907.19;5044839;28;20196;-79
2023/08/10 07:25:56;;;;;;;2.70;1.97;;;;;;;27.86;39.29;99916.69;5045002;28;20498;-78
2023/08/10 07:28:23;;;;;;;3.60;2.83;;;;;;;27.72;39.18;99907.69;5046422;28;20468;-78
2023/08/10 07:30:52;;;;;;;1.83;1.73;;;;;;;27.74;39.33;99902.94;5044372;28;20491;-78
2023/08/10 07:33:18;;;;;;;5.20;2.07;;;;;;;27.94;39.03;99903.00;5043979;28;20588;-76
2023/08/10 07:35:44;;;;;;;2.90;1.90;;;;;;;28.25;38.09;99897.06;5045425;28;20866;-77
2023/08/10 07:38:11;;;;;;;3.67;1.70;;;;;;;28.52;37.69;99906.06;5043174;28;20764;-79
2023/08/10 07:40:37;;;;;;;4.03;2.30;;;;;;;28.78;37.33;99897.09;5044577;28;20447;-79
2023/08/10 07:43:02;;;;;;;1.90;1.80;;;;;;;29.00;37.09;99891.44;5042689;28;20488;-78
2023/08/10 07:45:28;;;;;;;2.43;2.23;;;;;;;29.10;37.05;99898.13;5045072;28;20288;-79
2023/08/10 07:47:53;;;;;;;2.30;2.10;;;;;;;29.29;36.68;99893.69;5043960;28;20773;-79
2023/08/10 07:50:19;;;;;;;2.30;1.53;;;;;;;29.54;36.28;99893.84;5044980;28;20257;-77
2023/08/10 07:52:44;;;;;;;2.17;1.97;;;;;;;29.71;36.23;99888.78;5043826;28;20234;-77
2023/08/10 07:55:12;;;;;;;3.60;1.70;;;;;;;29.66;35.90;99885.88;5043427;28;20217;-78
2023/08/10 07:57:39;;;;;;;2.70;2.00;;;;;;;29.48;36.15;99889.25;5043213;28;20201;-80
2023/08/10 08:00:05;;;;;;;2.70;2.00;;;;;;;29.44;36.57;99888.03;5044535;28;20460;-79
2023/08/10 08:02:39;;;;;;;2.67;1.90;;;;;;;29.49;36.17;99874.69;5041308;28;20823;-77
2023/08/10 08:05:06;;;;;;;3.37;1.60;;;;;;;29.38;36.45;99871.81;5044674;28;20467;-78
2023/08/10 08:07:31;;;;;;;2.80;2.07;;;;;;;29.42;36.47;99881.19;5045184;28;20543;-77
2023/08/10 08:09:58;;;;;;;3.60;2.43;;;;;;;29.55;36.27;99876.53;5046178;28;20534;-79
2023/08/10 08:12:26;;;;;;;4.40;2.20;;;;;;;29.66;36.21;99877.75;5042225;28;20681;-77
2023/08/10 08:14:52;;;;;;;2.23;1.90;;;;;;;29.83;35.90;99879.97;5044164;28;21119;-81
2023/08/10 08:17:19;;;;;;;2.00;1.90;;;;;;;29.97;35.86;99873.41;5043547;28;20516;-77
2023/08/10 08:19:44;;;;;;;2.30;1.80;;;;;;;30.02;35.51;99879.00;5044959;28;20459;-80
2023/08/10 08:22:10;;;;;;;2.30;2.10;;;;;;;29.89;35.68;99879.91;5043231;28;20912;-78
2023/08/10 08:24:35;;;;;;;3.33;1.80;;;;;;;29.86;36.17;99876.81;5045581;28;20562;-78
2023/08/10 08:27:01;;;;;;;2.03;1.73;;;;;;;29.81;35.87;99874.75;5044328;28;20493;-78
2023/08/10 08:29:26;;;;;;;2.80;2.17;;;;;;;29.51;36.49;99874.47;5044398;28;20221;-77
2023/08/10 08:31:52;;;;;;;4.40;2.03;;;;;;;29.34;37.01;99877.66;5043508;28;20206;-78
2023/08/10 08:34:17;;;;;;;6.23;2.00;;;;;;;29.44;37.20;99882.63;5047496;28;20213;-79
2023/08/10 08:36:44;;;;;;;2.20;1.90;;;;;;;29.45;36.97;99867.22;5048787;28;20461;-79
2023/08/10 08:39:10;;;;;;;3.03;1.83;;;;;;;29.46;37.26;99874.28;5048450;28;20229;-77
2023/08/10 08:41:37;;;;;;;2.70;1.53;;;;;;;29.35;37.62;99870.34;5046009;28;20542;-78
2023/08/10 08:44:08;;;;;;;1.63;1.53;;;;;;;29.23;38.02;99877.50;5047095;28;20601;-79
2023/08/10 08:46:37;;;;;;;2.53;1.70;;;;;;;29.28;38.22;99870.41;5046975;28;20873;-77
2023/08/10 08:49:04;;;;;;;2.30;1.63;;;;;;;29.23;38.31;99864.78;5046918;28;20827;-78
2023/08/10 08:51:31;;;;;;;2.13;1.93;;;;;;;29.18;38.36;99866.47;5046959;28;20450;-77
2023/08/10 08:54:02;;;;;;;2.70;1.60;;;;;;;29.03;38.64;99863.97;5045569;28;20468;-79
2023/08/10 08:56:27;;;;;;;2.90;1.80;;;;;;;28.83;38.86;99858.63;5044780;28;20456;-77
2023/08/10 08:58:53;;;;;;;2.70;1.60;;;;;;;28.70;39.51;99861.34;5046287;28;20487;-79
2023/08/10 09:01:19;;;;;;;5.37;1.60;;;;;;;28.65;39.60;99857.41;5046946;28;20279;-79
2023/08/10 09:03:45;;;;;;;2.30;1.60;;;;;;;28.48;39.81;99852.63;5041730;28;20469;-77
2023/08/10 09:06:11;;;;;;;1.80;1.57;;;;;;;28.41;39.99;99848.03;5047030;28;20593;-77
2023/08/10 09:08:38;;;;;;;3.57;2.03;;;;;;;28.15;40.37;99845.31;5044798;28;20817;-78
2023/08/10 09:11:05;;;;;;;1.70;1.50;;;;;;;28.11;40.63;99836.81;5046488;28;20621;-79
2023/08/10 09:13:30;;;;;;;4.47;1.73;;;;;;;28.16;40.40;99838.88;5044722;28;20625;-80
2023/08/10 09:16:05;;;;;;;3.20;2.30;;;;;;;28.31;40.22;99823.28;5045035;28;20482;-79
2023/08/10 09:18:32;;;;;;;1.60;1.50;;;;;;;28.45;39.84;99818.75;5044470;28;20299;-78
2023/08/10 09:21:18;;;;;;;2.50;1.30;;;;;;;28.36;39.93;99810.00;5046671;28;20467;-78
2023/08/10 09:23:45;;;;;;;2.03;1.53;;;;;;;28.28;40.03;99814.78;5044687;28;20494;-77
2023/08/10 09:26:14;;;;;;;1.63;1.50;;;;;;;28.18;40.25;99817.88;5045007;28;20468;-77
2023/08/10 09:28:40;;;;;;;1.90;1.70;;;;;;;28.14;40.40;99816.63;5046167;28;20481;-77
2023/08/10 09:31:10;;;;;;;2.30;1.90;;;;;;;28.13;40.19;99814.97;5044048;28;20471;-77
2023/08/10 09:33:36;;;;;;;2.60;1.83;;;;;;;28.24;40.14;99817.88;5042573;28;20485;-77
2023/08/10 09:36:05;;;;;;;2.10;1.53;;;;;;;28.45;40.05;99819.56;5044902;28;20948;-77
2023/08/10 09:38:31;;;;;;;3.23;1.93;;;;;;;28.61;39.89;99807.50;5046556;28;20475;-80
2023/08/10 09:41:14;;;;;;;1.73;1.63;;;;;;;28.74;39.61;99817.47;5044853;28;20486;-78
2023/08/10 09:43:41;;;;;;;4.90;2.63;;;;;;;28.80;39.95;99824.72;5044588;28;20780;-79
2023/08/10 09:46:09;;;;;;;1.90;1.63;;;;;;;28.86;39.43;99815.75;5045109;28;20554;-77
2023/08/10 09:48:42;;;;;;;3.47;1.80;;;;;;;28.97;39.21;99826.97;5047159;28;20468;-77
2023/08/10 09:51:09;;;;;;;2.03;1.60;;;;;;;28.95;39.08;99818.22;5044485;28;20455;-79
2023/08/10 09:53:36;;;;;;;2.10;1.90;;;;;;;29.02;38.57;99821.75;5045349;28;20479;-80
2023/08/10 09:56:02;;;;;;;2.17;1.40;;;;;;;29.14;38.31;99806.56;5045956;28;20471;-77
2023/08/10 09:58:28;;;;;;;1.77;1.60;;;;;;;29.24;38.17;99808.81;5044215;28;20476;-78
2023/08/10 10:00:53;;;;;;;1.60;1.50;;;;;;;29.12;38.07;99803.25;5045482;28;20615;-80
2023/08/10 10:03:21;;;;;;;1.50;1.40;;;;;;;29.09;38.30;99799.09;5042987;28;20482;-78
2023/08/10 10:05:48;;;;;;;1.70;1.60;;;;;;;29.13;38.39;99804.06;5046638;28;20313;-77
2023/08/10 10:08:16;;;;;;;2.10;1.53;;;;;;;29.05;38.22;99807.84;5045692;28;20494;-77
2023/08/10 10:10:43;;;;;;;3.70;1.70;;;;;;;28.76;37.30;99801.88;5045395;28;20458;-78
2023/08/10 10:13:13;;;;;;;1.57;1.47;;;;;;;28.56;37.10;99793.78;5046266;28;20478;-78
2023/08/10 10:15:43;;;;;;;1.90;1.60;;;;;;;28.60;37.20;99789.63;5043695;28;21034;-79
2023/08/10 10:18:10;;;;;;;2.23;1.43;;;;;;;28.59;37.48;99782.53;5045004;28;20510;-77
2023/08/10 10:20:39;;;;;;;2.00;1.80;;;;;;;28.71;37.76;99777.34;5044160;28;20456;-80
2023/08/10 10:23:12;;;;;;;1.50;1.30;;;;;;;28.85;38.05;99765.44;5045686;28;20447;-78
2023/08/10 10:25:38;;;;;;;2.17;1.57;;;;;;;29.09;38.04;99763.94;5045602;28;20452;-76
2023/08/10 10:28:13;;;;;;;1.70;1.40;;;;;;;29.29;37.53;99754.88;5043898;28;20478;-79
2023/08/10 10:30:52;;;;;;;1.73;1.63;;;;;;;29.41;37.10;99747.75;5043969;28;20232;-77
2023/08/10 10:33:18;;;;;;;2.27;1.60;;;;;;;29.32;37.02;99752.56;5046348;28;20467;-77
2023/08/10 10:36:13;;;;;;;2.73;2.27;;;;;;;29.14;37.04;99738.94;5045023;28;20472;-77
2023/08/10 10:38:46;;;;;;;2.10;1.90;;;;;;;29.08;36.87;99739.78;5042701;28;20205;-77
2023/08/10 10:41:29;;;;;;;2.70;1.70;;;;;;;29.19;37.15;99749.94;5043280;28;20582;-78
2023/08/10 10:43:57;;;;;;;2.20;1.67;;;;;;;29.33;36.98;99751.53;5044482;28;20577;-77
2023/08/10 10:46:31;;;;;;;1.87;1.77;;;;;;;29.42;37.08;99749.41;5042760;28;20459;-79
2023/08/10 10:48:57;;;;;;;2.00;1.80;;;;;;;29.50;36.58;99751.84;5043458;28;20456;-79
2023/08/10 10:51:23;;;;;;;1.90;1.80;;;;;;;29.50;36.24;99737.50;5043821;28;20446;-77
2023/08/10 10:53:53;;;;;;;1.77;1.60;;;;;;;29.48;36.82;99729.56;5043733;28;20204;-78
2023/08/10 10:56:19;;;;;;;3.03;2.00;;;;;;;29.55;36.71;99729.56;5039703;28;20472;-78
2023/08/10 10:58:46;;;;;;;2.07;1.60;;;;;;;29.61;35.85;99734.06;5040768;28;20468;-79
2023/08/10 11:01:12;;;;;;;2.50;1.90;;;;;;;29.70;36.12;99738.19;5043548;28;20459;-78
2023/08/10 11:03:40;;;;;;;1.83;1.60;;;;;;;29.78;36.00;99737.09;5044124;28;20547;-78
2023/08/10 11:06:12;;;;;;;2.10;1.87;;;;;;;29.85;36.82;99731.66;5037747;28;20443;-79
2023/08/10 11:08:38;;;;;;;3.00;2.53;;;;;;;29.82;36.73;99732.09;5034902;28;20467;-79
2023/08/10 11:11:03;;;;;;;2.50;2.30;;;;;;;29.80;37.00;99734.19;5035026;28;20497;-76
2023/08/10 11:13:29;;;;;;;1.60;1.50;;;;;;;29.72;37.15;99733.41;5041303;28;20213;-77
2023/08/10 11:15:55;;;;;;;1.90;1.70;;;;;;;29.58;36.85;99737.22;5044600;28;20344;-79
2023/08/10 11:18:21;;;;;;;3.07;1.90;;;;;;;29.45;37.14;99731.91;5042661;28;20542;-78
2023/08/10 11:20:48;;;;;;;1.80;1.70;;;;;;;29.41;36.82;99734.22;5045518;28;20201;-77
2023/08/10 11:23:17;;;;;;;2.40;2.20;;;;;;;29.38;37.37;99744.63;5040213;28;20217;-79
2023/08/10 11:25:49;;;;;;;1.87;1.73;;;;;;;29.38;37.71;99747.34;5041930;28;20452;-78
2023/08/10 11:30:49;;;;;;;1.90;1.63;;;;;;;29.40;37.28;99751.47;4983467;28;20586;-74
2023/08/10 11:33:15;;;;;;;2.40;2.20;;;;;;;29.41;37.68;99752.31;4989013;28;20532;-75
2023/08/10 11:35:49;;;;;;;3.13;2.00;;;;;;;29.39;37.41;99755.25;4999487;28;20203;-77